3N8

Mahnomen County Airport

Mahnomen, Minnesota, USA
METAR K3N8 191555Z AUTO 00000KT 10SM CLR M26/M29 A3043 RMK AO2 T12561291
Observed Flight Rules
Jan-19 @ 15:55 UTC (41 minutes ago) Visual Flight Rules
Visibility Clouds
10 miles
  • Clear skies
Temperatures Readings
Current -26°C / -15°F
Dewpoint -29°C / -20°F
Humidity 76%
Altimeter 30.43" Hg
Pressure 1030.51 hPa
Elevation 383
METAR K3N8 191555Z AUTO 00000KT 10SM CLR M26/M29 A3043 RMK AO2 T12561291
Observed Flight Rules
Jan-19 @ 15:55 UTC
(41 minutes ago)
VFR
Clouds
  • Clear skies
Temperature Dewpoint
-26°C / -15°F -29°C / -20°F
Humidity Altimeter Pressure
76% 30.43" Hg 1030.51 hPa